createdAt,value
2018-11-27T00:01:14.273Z,40.75
2018-11-27T00:03:47.788Z,44.33
2018-11-27T00:06:15.332Z,41.80
2018-11-27T00:08:42.696Z,42.78
2018-11-27T00:11:10.065Z,43.17
2018-11-27T00:13:37.433Z,48.45
2018-11-27T00:16:04.845Z,42.27
2018-11-27T00:18:32.151Z,45.70
2018-11-27T00:20:59.480Z,43.10
2018-11-27T00:23:26.773Z,43.20
2018-11-27T00:25:54.511Z,44.75
2018-11-27T00:28:21.782Z,47.35
2018-11-27T00:30:49.102Z,40.65
2018-11-27T00:33:16.384Z,45.75
2018-11-27T00:35:43.715Z,46.85
2018-11-27T00:38:11.008Z,42.95
2018-11-27T00:40:38.340Z,43.23
2018-11-27T00:43:05.645Z,43.83
2018-11-27T00:45:33.024Z,48.80
2018-11-27T00:48:00.322Z,45.25
2018-11-27T00:50:27.641Z,49.63
2018-11-27T00:52:55.137Z,47.58
2018-11-27T00:55:22.533Z,42.67
2018-11-27T00:57:50.460Z,47.93
2018-11-27T01:00:18.573Z,41.90
2018-11-27T01:02:45.897Z,43.02
2018-11-27T01:05:14.603Z,41.28
2018-11-27T01:07:41.924Z,48.63
2018-11-27T01:10:10.332Z,45.43
2018-11-27T01:12:37.680Z,45.45
2018-11-27T01:15:05.483Z,43.48
2018-11-27T01:17:32.793Z,47.43
2018-11-27T01:20:00.160Z,42.67
2018-11-27T01:22:27.478Z,40.43
2018-11-27T01:24:54.793Z,42.17
2018-11-27T01:27:22.089Z,37.80
2018-11-27T01:29:49.532Z,40.65
2018-11-27T01:32:16.837Z,41.63
2018-11-27T01:34:44.222Z,46.40
2018-11-27T01:37:11.560Z,45.12
2018-11-27T01:39:38.866Z,41.42
2018-11-27T01:42:06.247Z,41.85
2018-11-27T01:44:33.626Z,40.35
2018-11-27T01:47:01.211Z,41.20
2018-11-27T01:49:28.591Z,45.43
2018-11-27T01:51:55.952Z,39.30
2018-11-27T01:54:23.232Z,41.35
2018-11-27T01:56:50.552Z,41.70
2018-11-27T01:59:17.873Z,39.63
2018-11-27T02:01:45.188Z,38.92
2018-11-27T02:04:12.522Z,40.78
2018-11-27T02:06:39.828Z,33.67
2018-11-27T02:09:07.716Z,42.15
2018-11-27T02:11:35.037Z,37.53
2018-11-27T02:14:02.627Z,39.65
2018-11-27T02:16:30.035Z,36.25
2018-11-27T02:18:57.352Z,38.55
2018-11-27T02:21:24.669Z,42.45
2018-11-27T02:23:51.940Z,40.08
2018-11-27T02:26:19.349Z,34.25
2018-11-27T02:28:46.600Z,38.23
2018-11-27T02:31:13.865Z,38.70
2018-11-27T02:33:41.181Z,37.93
2018-11-27T02:36:08.534Z,34.75
2018-11-27T02:38:35.883Z,41.20
2018-11-27T02:41:03.243Z,40.92
2018-11-27T02:43:30.536Z,38.35
2018-11-27T02:45:57.885Z,40.98
2018-11-27T02:48:25.188Z,36.35
2018-11-27T02:50:52.508Z,37.13
2018-11-27T02:53:19.825Z,40.95
2018-11-27T02:55:47.121Z,37.00
2018-11-27T02:58:14.444Z,38.60
2018-11-27T03:00:41.773Z,39.18
2018-11-27T03:03:09.063Z,33.92
2018-11-27T03:05:36.749Z,35.28
2018-11-27T03:08:04.168Z,33.40
2018-11-27T03:10:31.411Z,39.03
2018-11-27T03:12:58.739Z,41.50
2018-11-27T03:15:26.037Z,34.63
2018-11-27T03:17:53.350Z,38.17
2018-11-27T03:20:20.648Z,32.95
2018-11-27T03:22:47.963Z,35.80
2018-11-27T03:25:15.803Z,31.70
2018-11-27T03:27:43.521Z,30.95
2018-11-27T03:30:11.573Z,28.32
2018-11-27T03:32:38.828Z,31.45
2018-11-27T03:35:07.805Z,30.17
2018-11-27T03:37:35.113Z,30.45
2018-11-27T03:40:02.497Z,33.15
2018-11-27T03:42:29.762Z,31.62
2018-11-27T03:44:57.100Z,32.15
2018-11-27T03:47:24.381Z,29.40
2018-11-27T03:49:51.692Z,29.20
2018-11-27T03:52:19.001Z,34.30
2018-11-27T03:54:46.328Z,33.05
2018-11-27T03:57:13.960Z,34.53
2018-11-27T03:59:41.312Z,33.05
2018-11-27T04:02:08.620Z,33.65
2018-11-27T04:04:35.933Z,31.10
2018-11-27T04:07:03.223Z,35.58
2018-11-27T04:09:31.087Z,33.38
2018-11-27T04:11:58.367Z,30.37
2018-11-27T04:14:25.702Z,31.70
2018-11-27T04:16:52.986Z,33.80
2018-11-27T04:19:20.280Z,33.02
2018-11-27T04:21:47.588Z,27.90
2018-11-27T04:24:14.892Z,36.73
2018-11-27T04:26:42.287Z,31.07
2018-11-27T04:29:09.581Z,33.80
2018-11-27T04:31:36.889Z,27.70
2018-11-27T04:34:04.171Z,29.40
2018-11-27T04:36:31.432Z,34.45
2018-11-27T04:38:58.720Z,27.80
2018-11-27T04:41:26.058Z,34.80
2018-11-27T04:43:53.415Z,34.65
2018-11-27T04:46:20.720Z,31.52
2018-11-27T04:48:48.122Z,30.77
2018-11-27T04:51:15.532Z,34.95
2018-11-27T04:53:42.863Z,35.38
2018-11-27T04:56:10.153Z,33.33
2018-11-27T04:58:37.453Z,30.37
2018-11-27T05:01:05.331Z,38.23
2018-11-27T05:03:32.701Z,31.10
2018-11-27T05:05:59.996Z,30.70
2018-11-27T05:08:27.486Z,30.40
2018-11-27T05:10:54.792Z,29.70
2018-11-27T05:13:22.106Z,31.68
2018-11-27T05:15:49.432Z,31.00
2018-11-27T05:18:17.008Z,30.92
2018-11-27T05:20:44.254Z,31.48
2018-11-27T05:23:11.551Z,31.93
2018-11-27T05:25:38.887Z,33.58
2018-11-27T05:28:06.236Z,31.10
2018-11-27T05:30:33.618Z,32.20
2018-11-27T05:33:00.904Z,35.60
2018-11-27T05:35:28.767Z,31.37
2018-11-27T05:37:56.282Z,30.08
2018-11-27T05:40:23.997Z,29.90
2018-11-27T05:42:52.766Z,27.35
2018-11-27T05:45:20.484Z,31.23
2018-11-27T05:47:47.883Z,30.27
2018-11-27T05:50:15.761Z,27.22
2018-11-27T05:52:43.155Z,25.90
2018-11-27T05:55:10.853Z,28.62
2018-11-27T05:57:38.257Z,26.05
2018-11-27T06:00:08.704Z,27.45
2018-11-27T06:02:36.060Z,26.20
2018-11-27T06:05:03.551Z,24.50
2018-11-27T06:07:30.828Z,24.57
2018-11-27T06:09:58.125Z,25.92
2018-11-27T06:12:25.424Z,25.77
2018-11-27T06:14:52.741Z,28.27
2018-11-27T06:17:20.252Z,28.32
2018-11-27T06:19:47.553Z,28.32
2018-11-27T06:22:14.858Z,33.25
2018-11-27T06:24:42.117Z,29.18
2018-11-27T06:27:09.399Z,31.65
2018-11-27T06:29:36.676Z,28.83
2018-11-27T06:32:03.980Z,29.45
2018-11-27T06:34:31.241Z,28.20
2018-11-27T06:36:58.512Z,26.68
2018-11-27T06:39:25.791Z,28.40
2018-11-27T06:41:53.101Z,30.15
2018-11-27T06:44:20.348Z,26.37
2018-11-27T06:46:47.738Z,28.98
2018-11-27T06:49:15.015Z,25.80
2018-11-27T06:51:42.317Z,27.48
2018-11-27T06:54:09.625Z,26.97
2018-11-27T06:56:36.933Z,28.85
2018-11-27T06:59:04.231Z,25.72
2018-11-27T07:01:31.536Z,25.05
2018-11-27T07:03:58.840Z,27.42
2018-11-27T07:06:26.144Z,26.10
2018-11-27T07:08:53.479Z,28.80
2018-11-27T07:11:20.756Z,27.90
2018-11-27T07:13:48.060Z,25.40
2018-11-27T07:16:15.315Z,26.35
2018-11-27T07:18:42.606Z,26.68
2018-11-27T07:21:09.887Z,29.40
2018-11-27T07:23:37.191Z,25.02
2018-11-27T07:26:04.781Z,25.57
2018-11-27T07:28:32.059Z,29.90
2018-11-27T07:30:59.310Z,27.17
2018-11-27T07:33:26.889Z,26.23
2018-11-27T07:35:54.204Z,28.77
2018-11-27T07:38:21.497Z,28.80
2018-11-27T07:40:48.764Z,28.30
2018-11-27T07:43:16.040Z,28.38
2018-11-27T07:45:43.326Z,27.55
2018-11-27T07:48:10.671Z,26.37
2018-11-27T07:50:37.953Z,28.65
2018-11-27T07:53:05.324Z,28.35
2018-11-27T07:55:32.632Z,27.25
2018-11-27T07:57:59.884Z,32.33
2018-11-27T08:00:27.972Z,26.70
2018-11-27T08:02:56.687Z,27.70
2018-11-27T08:05:27.745Z,27.48
2018-11-27T08:07:55.561Z,32.55
2018-11-27T08:10:23.493Z,26.60
2018-11-27T08:12:50.795Z,28.47
2018-11-27T08:15:18.720Z,31.12
2018-11-27T08:17:46.007Z,30.88
2018-11-27T08:20:21.788Z,25.55
2018-11-27T08:22:49.156Z,24.65
2018-11-27T08:25:16.424Z,26.10
2018-11-27T08:27:43.713Z,26.48
2018-11-27T08:30:11.805Z,24.80
2018-11-27T08:32:39.136Z,24.05
2018-11-27T08:35:07.617Z,28.38
2018-11-27T08:37:34.920Z,26.50
2018-11-27T08:40:02.193Z,24.18
2018-11-27T08:42:29.504Z,27.15
2018-11-27T08:44:56.768Z,27.48
2018-11-27T08:47:24.068Z,25.50
2018-11-27T08:49:51.366Z,24.45
2018-11-27T08:52:18.668Z,28.02
2018-11-27T08:54:45.984Z,25.75
2018-11-27T08:57:13.288Z,30.05
2018-11-27T08:59:40.548Z,27.58
2018-11-27T09:02:07.827Z,26.65
2018-11-27T09:04:35.329Z,28.10
2018-11-27T09:07:02.616Z,27.27
2018-11-27T09:09:29.948Z,28.90
2018-11-27T09:11:57.227Z,28.30
2018-11-27T09:14:24.532Z,28.27
2018-11-27T09:16:51.785Z,27.52
2018-11-27T09:19:19.055Z,26.45
2018-11-27T09:21:46.286Z,29.82
2018-11-27T09:24:13.672Z,26.52
2018-11-27T09:26:40.974Z,25.97
2018-11-27T09:29:08.271Z,24.35
2018-11-27T09:31:35.811Z,29.20
2018-11-27T09:34:03.117Z,28.12
2018-11-27T09:36:30.396Z,28.02
2018-11-27T09:38:57.698Z,25.62
2018-11-27T09:41:24.995Z,30.55
2018-11-27T09:43:52.348Z,26.45
2018-11-27T09:46:19.616Z,28.45
2018-11-27T09:48:46.927Z,27.05
2018-11-27T09:51:14.219Z,25.40
2018-11-27T09:53:41.517Z,29.42
2018-11-27T09:56:08.887Z,26.33
2018-11-27T09:58:36.296Z,29.30
2018-11-27T10:01:03.586Z,27.25
2018-11-27T10:03:30.876Z,26.35
2018-11-27T10:05:58.160Z,26.35
2018-11-27T10:08:25.570Z,27.85
2018-11-27T10:10:52.896Z,27.50
2018-11-27T10:13:20.197Z,28.30
2018-11-27T10:15:47.488Z,27.58
2018-11-27T10:18:14.796Z,28.25
2018-11-27T10:20:42.355Z,29.50
2018-11-27T10:23:11.148Z,25.62
2018-11-27T10:25:38.719Z,29.95
2018-11-27T10:28:06.269Z,29.87
2018-11-27T10:30:33.575Z,29.60
2018-11-27T10:33:00.886Z,29.20
2018-11-27T10:35:29.911Z,29.27
2018-11-27T10:37:57.219Z,28.30
2018-11-27T10:40:24.464Z,30.20
2018-11-27T10:42:51.823Z,29.65
2018-11-27T10:45:19.581Z,27.70
2018-11-27T10:47:47.355Z,33.35
2018-11-27T10:50:15.279Z,27.45
2018-11-27T10:52:44.106Z,26.77
2018-11-27T10:55:12.913Z,27.45
2018-11-27T10:57:40.254Z,31.25
2018-11-27T11:00:15.898Z,28.40
2018-11-27T11:02:44.539Z,27.98
2018-11-27T11:05:11.822Z,31.37
2018-11-27T11:07:39.127Z,31.15
2018-11-27T11:10:06.736Z,26.60
2018-11-27T11:12:34.001Z,29.63
2018-11-27T11:15:01.281Z,27.42
2018-11-27T11:17:28.568Z,28.38
2018-11-27T11:19:55.892Z,31.25
2018-11-27T11:22:23.154Z,28.00
2018-11-27T11:24:50.459Z,31.50
2018-11-27T11:27:17.767Z,29.05
2018-11-27T11:29:45.273Z,27.00
2018-11-27T11:32:12.585Z,26.02
2018-11-27T11:34:39.880Z,26.68
2018-11-27T11:37:07.127Z,25.37
2018-11-27T11:39:34.430Z,24.63
2018-11-27T11:42:01.691Z,21.70
2018-11-27T11:44:28.997Z,25.72
2018-11-27T11:46:56.270Z,25.62
2018-11-27T11:49:23.556Z,25.70
2018-11-27T11:51:50.891Z,24.37
2018-11-27T11:54:18.167Z,25.37
2018-11-27T11:56:45.569Z,23.18
2018-11-27T11:59:12.880Z,24.47
2018-11-27T12:01:40.184Z,26.35
2018-11-27T12:04:07.437Z,25.12
2018-11-27T12:06:34.741Z,24.60
2018-11-27T12:09:02.051Z,23.27
2018-11-27T12:11:29.384Z,28.23
2018-11-27T12:13:56.712Z,29.67
2018-11-27T12:16:24.010Z,24.92
2018-11-27T12:18:51.344Z,27.42
2018-11-27T12:21:18.688Z,23.55
2018-11-27T12:23:46.002Z,26.33
2018-11-27T12:26:13.293Z,26.40
2018-11-27T12:28:40.539Z,26.45
2018-11-27T12:31:07.806Z,26.15
2018-11-27T12:33:35.100Z,23.95
2018-11-27T12:36:02.381Z,23.92
2018-11-27T12:38:29.656Z,27.37
2018-11-27T12:40:56.938Z,26.17
2018-11-27T12:43:24.224Z,25.57
2018-11-27T12:45:51.687Z,26.35
2018-11-27T12:48:19.141Z,24.40
2018-11-27T12:50:47.183Z,25.77
2018-11-27T12:53:17.012Z,23.02
2018-11-27T12:55:42.932Z,23.40
2018-11-27T12:58:10.233Z,25.77
2018-11-27T13:00:37.535Z,23.52
2018-11-27T13:03:04.982Z,24.80
2018-11-27T13:05:39.964Z,24.07
2018-11-27T13:08:08.032Z,23.75
2018-11-27T13:10:35.296Z,24.75
2018-11-27T13:13:02.618Z,26.23
2018-11-27T13:15:29.906Z,23.07
2018-11-27T13:17:57.165Z,26.23
2018-11-27T13:20:24.449Z,19.32
2018-11-27T13:22:51.982Z,23.45
2018-11-27T13:25:21.257Z,22.35
2018-11-27T13:27:48.969Z,24.05
2018-11-27T13:30:18.085Z,24.15
2018-11-27T13:32:46.249Z,22.93
2018-11-27T13:35:13.712Z,23.80
2018-11-27T13:37:41.051Z,25.55
2018-11-27T13:40:09.078Z,23.65
2018-11-27T13:42:36.370Z,22.37
2018-11-27T13:45:03.772Z,20.95
2018-11-27T13:47:31.090Z,24.23
2018-11-27T13:49:58.391Z,24.07
2018-11-27T13:52:25.686Z,23.75
2018-11-27T13:54:52.984Z,23.50
2018-11-27T13:57:20.298Z,23.18
2018-11-27T13:59:47.560Z,22.55
2018-11-27T14:02:14.876Z,22.67
2018-11-27T14:04:42.140Z,23.02
2018-11-27T14:07:09.425Z,22.05
2018-11-27T14:09:36.730Z,23.83
2018-11-27T14:12:04.016Z,23.42
2018-11-27T14:14:31.309Z,23.35
2018-11-27T14:16:58.874Z,23.47
2018-11-27T14:19:26.164Z,27.05
2018-11-27T14:21:53.473Z,24.20
2018-11-27T14:24:20.741Z,23.20
2018-11-27T14:26:48.080Z,22.73
2018-11-27T14:29:15.348Z,24.65
2018-11-27T14:31:42.663Z,23.32
2018-11-27T14:34:09.928Z,22.90
2018-11-27T14:36:37.196Z,23.00
2018-11-27T14:39:07.766Z,25.40
2018-11-27T14:41:35.039Z,22.75
2018-11-27T14:44:02.329Z,25.27
2018-11-27T14:46:29.621Z,24.67
2018-11-27T14:48:56.917Z,24.82
2018-11-27T14:51:24.198Z,23.30
2018-11-27T14:53:51.527Z,23.52
2018-11-27T14:56:18.804Z,26.37
2018-11-27T14:58:50.900Z,25.45
2018-11-27T15:01:13.420Z,25.60
2018-11-27T15:03:40.724Z,25.52
2018-11-27T15:06:07.977Z,24.25
2018-11-27T15:08:35.257Z,28.02
2018-11-27T15:11:02.859Z,26.07
2018-11-27T15:13:30.160Z,25.75
2018-11-27T15:15:57.461Z,26.00
2018-11-27T15:18:24.773Z,28.07
2018-11-27T15:20:52.083Z,28.42
2018-11-27T15:23:19.399Z,27.15
2018-11-27T15:25:46.712Z,31.35
2018-11-27T15:28:14.005Z,27.65
2018-11-27T15:30:41.355Z,30.85
2018-11-27T15:33:08.663Z,27.95
2018-11-27T15:35:36.307Z,26.37
2018-11-27T15:38:04.023Z,28.35
2018-11-27T15:40:31.333Z,32.08
2018-11-27T15:42:58.640Z,29.32
2018-11-27T15:45:27.492Z,26.12
2018-11-27T15:47:54.786Z,28.83
2018-11-27T15:50:22.090Z,30.52
2018-11-27T15:52:49.576Z,29.80
2018-11-27T15:55:17.513Z,31.45
2018-11-27T15:57:45.049Z,27.35
2018-11-27T16:00:13.130Z,26.62
2018-11-27T16:02:40.540Z,28.35
2018-11-27T16:05:07.856Z,29.23
2018-11-27T16:07:35.175Z,28.15
2018-11-27T16:10:02.413Z,33.53
2018-11-27T16:12:29.720Z,27.45
2018-11-27T16:14:57.052Z,25.60
2018-11-27T16:17:24.413Z,31.05
2018-11-27T16:19:51.705Z,31.93
2018-11-27T16:22:19.007Z,27.95
2018-11-27T16:24:46.411Z,29.37
2018-11-27T16:27:13.757Z,30.37
2018-11-27T16:29:41.067Z,29.77
2018-11-27T16:32:08.632Z,27.48
2018-11-27T16:34:35.912Z,29.02
2018-11-27T16:37:03.216Z,29.72
2018-11-27T16:39:30.542Z,29.80
2018-11-27T16:41:57.790Z,30.50
2018-11-27T16:44:25.151Z,29.92
2018-11-27T16:46:52.460Z,34.13
2018-11-27T16:49:19.773Z,31.48
2018-11-27T16:51:47.080Z,30.65
2018-11-27T16:54:14.370Z,28.70
2018-11-27T16:56:41.644Z,35.15
2018-11-27T16:59:09.174Z,33.70
2018-11-27T17:01:36.449Z,37.25
2018-11-27T17:04:03.792Z,36.48
2018-11-27T17:06:31.101Z,32.83
2018-11-27T17:08:58.406Z,38.33
2018-11-27T17:11:25.711Z,34.00
2018-11-27T17:13:53.030Z,33.53
2018-11-27T17:16:20.340Z,32.48
2018-11-27T17:18:47.647Z,33.70
2018-11-27T17:21:15.044Z,32.83
2018-11-27T17:23:42.316Z,29.02
2018-11-27T17:26:09.655Z,32.58
2018-11-27T17:28:36.959Z,29.32
2018-11-27T17:31:07.554Z,33.50
2018-11-27T17:33:40.839Z,30.08
2018-11-27T17:36:08.659Z,32.78
2018-11-27T17:38:36.377Z,34.35
2018-11-27T17:41:03.690Z,33.38
2018-11-27T17:43:30.987Z,32.78
2018-11-27T17:45:58.328Z,33.65
2018-11-27T17:48:25.693Z,31.52
2018-11-27T17:50:53.051Z,33.25
2018-11-27T17:53:20.444Z,31.45
2018-11-27T17:55:48.022Z,36.33
2018-11-27T17:58:15.333Z,30.90
2018-11-27T18:00:42.770Z,37.08
2018-11-27T18:03:10.470Z,38.50
2018-11-27T18:05:37.853Z,34.73
2018-11-27T18:08:05.808Z,35.40
2018-11-27T18:10:33.109Z,32.23
2018-11-27T18:13:00.458Z,33.35
2018-11-27T18:15:27.796Z,31.65
2018-11-27T18:17:55.092Z,35.17
2018-11-27T18:20:29.034Z,38.88
2018-11-27T18:22:56.402Z,35.40
2018-11-27T18:25:24.063Z,34.48
2018-11-27T18:27:51.684Z,32.45
2018-11-27T18:30:20.855Z,33.67
2018-11-27T18:32:48.213Z,33.92
2018-11-27T18:35:18.841Z,36.03
2018-11-27T18:37:46.540Z,37.20
2018-11-27T18:40:14.474Z,33.90
2018-11-27T18:42:41.998Z,33.83
2018-11-27T18:45:17.047Z,34.08
2018-11-27T18:47:44.409Z,35.23
2018-11-27T18:50:11.972Z,41.23
2018-11-27T18:52:39.833Z,37.95
2018-11-27T18:55:09.025Z,32.15
2018-11-27T18:57:36.343Z,33.28
2018-11-27T19:00:04.360Z,34.85
2018-11-27T19:02:31.879Z,31.23
2018-11-27T19:04:59.347Z,36.35
2018-11-27T19:07:26.774Z,37.05
2018-11-27T19:09:54.120Z,31.52
2018-11-27T19:12:21.548Z,36.00
2018-11-27T19:14:48.956Z,35.43
2018-11-27T19:17:16.751Z,33.15
2018-11-27T19:19:44.218Z,32.13
2018-11-27T19:22:11.674Z,29.65
2018-11-27T19:24:38.992Z,32.13
2018-11-27T19:27:06.452Z,34.08
2018-11-27T19:29:33.818Z,36.48
2018-11-27T19:32:01.194Z,33.75
2018-11-27T19:34:28.632Z,36.17
2018-11-27T19:36:56.149Z,35.45
2018-11-27T19:39:23.655Z,34.58
2018-11-27T19:41:51.072Z,33.08
2018-11-27T19:44:18.410Z,29.77
2018-11-27T19:46:45.903Z,35.33
2018-11-27T19:49:14.125Z,36.50
2018-11-27T19:51:42.404Z,34.67
2018-11-27T19:54:09.750Z,31.37
2018-11-27T19:56:37.145Z,34.20
2018-11-27T19:59:05.010Z,30.70
2018-11-27T20:01:31.907Z,38.88
2018-11-27T20:03:59.847Z,37.25
2018-11-27T20:06:27.320Z,34.10
2018-11-27T20:08:54.732Z,35.25
2018-11-27T20:11:22.927Z,32.60
2018-11-27T20:13:50.552Z,36.28
2018-11-27T20:16:18.009Z,35.90
2018-11-27T20:18:45.475Z,33.35
2018-11-27T20:21:12.901Z,35.17
2018-11-27T20:23:40.309Z,32.08
2018-11-27T20:26:07.681Z,34.00
2018-11-27T20:28:35.841Z,32.03
2018-11-27T20:31:03.292Z,30.32
2018-11-27T20:33:35.133Z,32.05
2018-11-27T20:36:02.504Z,35.85
2018-11-27T20:38:29.905Z,37.40
2018-11-27T20:41:01.394Z,32.73
2018-11-27T20:43:28.790Z,36.00
2018-11-27T20:45:56.157Z,36.98
2018-11-27T20:48:23.539Z,32.13
2018-11-27T20:50:56.176Z,29.80
2018-11-27T20:53:23.606Z,39.90
2018-11-27T20:58:18.881Z,33.30
2018-11-27T21:00:47.180Z,38.30
2018-11-27T21:03:14.715Z,31.73
2018-11-27T21:05:44.205Z,36.33
2018-11-27T21:08:11.654Z,32.00
2018-11-27T21:10:39.248Z,35.30
2018-11-27T21:13:07.997Z,34.60
2018-11-27T21:15:35.680Z,40.00
2018-11-27T21:18:03.095Z,34.90
2018-11-27T21:20:31.716Z,36.17
2018-11-27T21:22:59.162Z,36.83
2018-11-27T21:25:26.555Z,33.78
2018-11-27T21:27:56.699Z,38.17
2018-11-27T21:30:29.403Z,39.08
2018-11-27T21:32:57.103Z,37.70
2018-11-27T21:35:24.404Z,35.58
2018-11-27T21:37:51.814Z,34.50
2018-11-27T21:40:19.501Z,35.98
2018-11-27T21:42:47.121Z,35.33
2018-11-27T21:45:18.896Z,36.30
2018-11-27T21:47:47.359Z,34.40
2018-11-27T21:50:16.182Z,37.42
2018-11-27T21:52:45.068Z,35.45
2018-11-27T21:55:12.937Z,35.92
2018-11-27T21:57:40.523Z,33.80
2018-11-27T22:00:10.304Z,38.55
2018-11-27T22:02:38.072Z,35.75
2018-11-27T22:05:10.714Z,34.88
2018-11-27T22:07:38.204Z,36.33
2018-11-27T22:10:08.055Z,33.00
2018-11-27T22:12:35.416Z,32.78
2018-11-27T22:15:02.889Z,37.35
2018-11-27T22:17:30.242Z,35.70
2018-11-27T22:19:57.632Z,38.30
2018-11-27T22:22:24.924Z,34.70
2018-11-27T22:24:52.316Z,36.48
2018-11-27T22:27:19.754Z,35.08
2018-11-27T22:29:47.117Z,34.18
2018-11-27T22:32:14.449Z,41.08
2018-11-27T22:34:41.898Z,33.65
2018-11-27T22:37:09.286Z,33.00
2018-11-27T22:39:37.049Z,39.15
2018-11-27T22:42:05.373Z,37.95
2018-11-27T22:44:32.882Z,35.00
2018-11-27T22:47:00.803Z,34.20
2018-11-27T22:49:28.297Z,35.60
2018-11-27T22:51:55.792Z,36.38
2018-11-27T22:54:23.658Z,37.73
2018-11-27T22:56:50.969Z,34.60
2018-11-27T22:59:18.367Z,38.13
2018-11-27T23:01:45.812Z,36.17
2018-11-27T23:04:13.260Z,38.98
2018-11-27T23:06:40.650Z,30.80
2018-11-27T23:09:08.537Z,38.90
2018-11-27T23:11:36.151Z,37.83
2018-11-27T23:14:03.764Z,31.25
2018-11-27T23:16:31.130Z,38.98
2018-11-27T23:18:59.517Z,34.90
2018-11-27T23:21:26.920Z,36.15
2018-11-27T23:24:00.559Z,37.33
2018-11-27T23:26:28.906Z,37.10
2018-11-27T23:28:56.429Z,35.85
2018-11-27T23:31:24.645Z,41.60
2018-11-27T23:36:18.624Z,35.88
2018-11-27T23:38:46.317Z,37.85
2018-11-27T23:41:13.755Z,35.58
2018-11-27T23:43:41.568Z,36.20
2018-11-27T23:46:08.940Z,36.60
2018-11-27T23:48:36.788Z,36.40
2018-11-27T23:51:04.285Z,38.80
2018-11-27T23:53:32.414Z,31.90
2018-11-27T23:55:59.869Z,39.75
2018-11-27T23:58:28.059Z,35.92
